createdAt,value
2023-05-09T00:01:30.782Z,259
2023-05-09T00:03:38.993Z,261
2023-05-09T00:05:46.073Z,260
2023-05-09T00:07:52.606Z,259
2023-05-09T00:09:58.856Z,259
2023-05-09T00:12:05.491Z,249
2023-05-09T00:14:15.067Z,259
2023-05-09T00:16:22.097Z,259
2023-05-09T00:18:28.980Z,258
2023-05-09T00:20:35.323Z,257
2023-05-09T00:22:42.648Z,253
2023-05-09T00:24:48.930Z,259
2023-05-09T00:26:55.111Z,258
2023-05-09T00:29:01.804Z,259
2023-05-09T00:31:08.607Z,252
2023-05-09T00:33:15.546Z,250
2023-05-09T00:35:22.815Z,260
2023-05-09T00:37:29.082Z,259
2023-05-09T00:39:35.797Z,252
2023-05-09T00:41:42.440Z,252
2023-05-09T00:43:48.867Z,249
2023-05-09T00:45:55.724Z,252
2023-05-09T00:48:02.850Z,252
2023-05-09T00:50:27.689Z,248
2023-05-09T00:52:33.974Z,249
2023-05-09T00:54:40.280Z,252
2023-05-09T00:56:48.660Z,249
2023-05-09T00:58:55.783Z,249
2023-05-09T01:01:02.544Z,250
2023-05-09T01:03:09.649Z,249
2023-05-09T01:05:17.970Z,249
2023-05-09T01:07:25.068Z,249
2023-05-09T01:09:32.172Z,261
2023-05-09T01:11:38.515Z,262
2023-05-09T01:13:44.830Z,264
2023-05-09T01:15:51.724Z,262
2023-05-09T01:17:58.679Z,262
2023-05-09T01:20:06.342Z,264
2023-05-09T01:22:12.649Z,262
2023-05-09T01:24:19.797Z,264
2023-05-09T01:26:26.733Z,264
2023-05-09T01:28:33.209Z,264
2023-05-09T01:30:39.448Z,264
2023-05-09T01:32:46.644Z,264
2023-05-09T01:34:53.073Z,262
2023-05-09T01:37:00.118Z,264
2023-05-09T01:39:07.658Z,262
2023-05-09T01:41:14.116Z,262
2023-05-09T01:43:20.873Z,262
2023-05-09T01:45:27.756Z,264
2023-05-09T01:47:34.355Z,264
2023-05-09T01:49:41.040Z,262
2023-05-09T01:51:47.516Z,262
2023-05-09T01:53:54.695Z,262
2023-05-09T01:56:00.952Z,262
2023-05-09T01:58:07.707Z,262
2023-05-09T02:00:14.885Z,262
2023-05-09T02:02:21.649Z,264
2023-05-09T02:04:28.103Z,262
2023-05-09T02:06:34.813Z,264
2023-05-09T02:08:41.366Z,262
2023-05-09T02:10:48.184Z,264
2023-05-09T02:12:55.254Z,264
2023-05-09T02:15:02.770Z,262
2023-05-09T02:17:09.330Z,264
2023-05-09T02:19:15.532Z,264
2023-05-09T02:21:21.710Z,262
2023-05-09T02:23:28.081Z,262
2023-05-09T02:25:35.184Z,264
2023-05-09T02:27:41.636Z,262
2023-05-09T02:29:48.044Z,262
2023-05-09T02:31:54.381Z,264
2023-05-09T02:34:00.751Z,264
2023-05-09T02:36:07.667Z,264
2023-05-09T02:38:14.158Z,264
2023-05-09T02:40:21.431Z,264
2023-05-09T02:42:27.886Z,264
2023-05-09T02:44:35.299Z,264
2023-05-09T02:46:43.398Z,262
2023-05-09T02:48:50.476Z,262
2023-05-09T02:50:57.229Z,262
2023-05-09T02:53:04.269Z,264
2023-05-09T02:55:11.325Z,264
2023-05-09T02:57:18.426Z,262
2023-05-09T02:59:24.874Z,262
2023-05-09T03:01:31.206Z,262
2023-05-09T03:03:38.056Z,262
2023-05-09T03:05:45.026Z,262
2023-05-09T03:07:51.240Z,262
2023-05-09T03:09:57.872Z,262
2023-05-09T03:12:04.219Z,262
2023-05-09T03:14:10.906Z,264
2023-05-09T03:16:17.808Z,264
2023-05-09T03:18:24.773Z,262
2023-05-09T03:20:31.557Z,262
2023-05-09T03:22:38.028Z,262
2023-05-09T03:24:44.635Z,264
2023-05-09T03:26:51.567Z,264
2023-05-09T03:29:01.477Z,262
2023-05-09T03:31:08.469Z,264
2023-05-09T03:33:15.186Z,264
2023-05-09T03:35:21.668Z,264
2023-05-09T03:37:30.111Z,264
2023-05-09T03:39:36.760Z,264
2023-05-09T03:41:44.009Z,264
2023-05-09T03:43:50.653Z,264
2023-05-09T03:45:57.761Z,264
2023-05-09T03:48:04.887Z,264
2023-05-09T03:50:12.940Z,264
2023-05-09T03:52:19.160Z,264
2023-05-09T03:54:43.385Z,264
2023-05-09T03:56:49.854Z,264
2023-05-09T03:58:56.634Z,262
2023-05-09T04:01:03.040Z,262
2023-05-09T04:03:10.182Z,264
2023-05-09T04:05:18.777Z,264
2023-05-09T04:07:25.110Z,264
2023-05-09T04:09:31.454Z,264
2023-05-09T04:11:39.066Z,264
2023-05-09T04:13:46.940Z,264
2023-05-09T04:15:54.487Z,264
2023-05-09T04:18:01.745Z,264
2023-05-09T04:20:08.659Z,264
2023-05-09T04:22:15.886Z,264
2023-05-09T04:24:22.167Z,264
2023-05-09T04:26:29.128Z,264
2023-05-09T04:28:36.131Z,265
2023-05-09T04:30:42.743Z,264
2023-05-09T04:32:49.537Z,264
2023-05-09T04:34:57.075Z,264
2023-05-09T04:37:04.156Z,264
2023-05-09T04:39:11.352Z,262
2023-05-09T04:41:18.704Z,264
2023-05-09T04:43:25.705Z,264
2023-05-09T04:45:32.200Z,264
2023-05-09T04:47:38.511Z,262
2023-05-09T04:49:45.934Z,264
2023-05-09T04:51:52.724Z,262
2023-05-09T04:54:01.184Z,264
2023-05-09T04:56:07.924Z,264
2023-05-09T04:58:14.803Z,264
2023-05-09T05:00:21.417Z,262
2023-05-09T05:02:28.416Z,264
2023-05-09T05:04:35.626Z,265
2023-05-09T05:06:43.256Z,264
2023-05-09T05:08:50.617Z,264
2023-05-09T05:10:57.241Z,262
2023-05-09T05:13:03.497Z,264
2023-05-09T05:15:09.663Z,264
2023-05-09T05:17:17.089Z,264
2023-05-09T05:19:23.768Z,264
2023-05-09T05:21:30.113Z,264
2023-05-09T05:23:37.278Z,262
2023-05-09T05:25:43.916Z,264
2023-05-09T05:27:50.450Z,265
2023-05-09T05:29:56.693Z,264
2023-05-09T05:32:03.644Z,265
2023-05-09T05:34:10.501Z,264
2023-05-09T05:36:16.773Z,264
2023-05-09T05:38:23.343Z,264
2023-05-09T05:40:29.675Z,265
2023-05-09T05:42:36.169Z,264
2023-05-09T05:44:44.232Z,265
2023-05-09T05:46:51.046Z,264
2023-05-09T05:48:58.102Z,265
2023-05-09T05:51:04.093Z,264
2023-05-09T05:53:10.762Z,265
2023-05-09T05:55:18.033Z,265
2023-05-09T05:57:24.271Z,265
2023-05-09T05:59:30.728Z,265
2023-05-09T06:01:37.195Z,265
2023-05-09T06:03:43.939Z,264
2023-05-09T06:05:50.408Z,265
2023-05-09T06:07:56.585Z,264
2023-05-09T06:10:03.394Z,265
2023-05-09T06:12:10.684Z,265
2023-05-09T06:14:18.771Z,265
2023-05-09T06:16:25.444Z,265
2023-05-09T06:18:31.990Z,265
2023-05-09T06:20:39.944Z,265
2023-05-09T06:22:47.300Z,264
2023-05-09T06:24:54.361Z,264
2023-05-09T06:27:01.114Z,265
2023-05-09T06:29:07.346Z,265
2023-05-09T06:31:13.527Z,264
2023-05-09T06:33:21.110Z,265
2023-05-09T06:35:27.828Z,265
2023-05-09T06:37:34.740Z,265
2023-05-09T06:39:44.662Z,265
2023-05-09T06:41:51.019Z,265
2023-05-09T06:43:57.672Z,265
2023-05-09T06:46:04.617Z,265
2023-05-09T06:48:11.885Z,264
2023-05-09T06:50:21.237Z,265
2023-05-09T06:52:28.958Z,264
2023-05-09T06:54:35.539Z,264
2023-05-09T06:56:41.827Z,265
2023-05-09T06:58:48.479Z,264
2023-05-09T07:00:55.369Z,265
2023-05-09T07:03:02.499Z,265
2023-05-09T07:05:09.107Z,265
2023-05-09T07:07:15.989Z,265
2023-05-09T07:09:22.548Z,265
2023-05-09T07:11:30.550Z,264
2023-05-09T07:13:37.023Z,264
2023-05-09T07:15:46.168Z,265
2023-05-09T07:17:53.704Z,265
2023-05-09T07:20:00.031Z,264
2023-05-09T07:22:06.741Z,265
2023-05-09T07:24:13.013Z,264
2023-05-09T07:26:21.348Z,265
2023-05-09T07:28:29.005Z,265
2023-05-09T07:30:37.943Z,265
2023-05-09T07:32:45.392Z,264
2023-05-09T07:34:51.864Z,264
2023-05-09T07:36:59.457Z,264
2023-05-09T07:39:06.800Z,264
2023-05-09T07:41:13.286Z,265
2023-05-09T07:43:19.742Z,264
2023-05-09T07:45:28.159Z,264
2023-05-09T07:47:52.860Z,264
2023-05-09T07:50:04.541Z,264
2023-05-09T07:52:12.955Z,264
2023-05-09T07:54:22.740Z,265
2023-05-09T07:56:34.318Z,265
2023-05-09T07:58:50.448Z,264
2023-05-09T08:01:01.095Z,264
2023-05-09T08:03:16.641Z,264
2023-05-09T08:05:26.602Z,264
2023-05-09T08:07:33.767Z,264
2023-05-09T08:09:42.272Z,264
2023-05-09T08:11:52.762Z,264
2023-05-09T08:14:02.708Z,264
2023-05-09T08:16:12.647Z,264
2023-05-09T08:18:18.972Z,264
2023-05-09T08:20:26.134Z,264
2023-05-09T08:22:36.937Z,262
2023-05-09T08:24:59.796Z,264
2023-05-09T08:27:09.270Z,264
2023-05-09T08:29:19.382Z,264
2023-05-09T08:31:31.762Z,264
2023-05-09T08:33:41.766Z,264
2023-05-09T08:35:57.380Z,265
2023-05-09T08:38:09.429Z,265
2023-05-09T08:40:18.173Z,264
2023-05-09T08:42:29.855Z,264
2023-05-09T08:44:37.123Z,264
2023-05-09T08:46:52.728Z,264
2023-05-09T08:49:00.784Z,264
2023-05-09T08:51:07.668Z,264
2023-05-09T08:53:16.467Z,264
2023-05-09T08:55:28.011Z,265
2023-05-09T08:57:35.341Z,265
2023-05-09T08:59:42.768Z,264
2023-05-09T09:01:50.386Z,264
2023-05-09T09:04:05.960Z,264
2023-05-09T09:06:15.938Z,264
2023-05-09T09:08:22.406Z,264
2023-05-09T09:10:28.951Z,264
2023-05-09T09:12:37.375Z,264
2023-05-09T09:14:43.922Z,264
2023-05-09T09:16:52.830Z,264
2023-05-09T09:19:09.891Z,264
2023-05-09T09:21:18.933Z,264
2023-05-09T09:23:25.378Z,264
2023-05-09T09:25:31.888Z,264
2023-05-09T09:27:41.627Z,262
2023-05-09T09:29:51.939Z,264
2023-05-09T09:32:02.493Z,262
2023-05-09T09:34:11.456Z,264
2023-05-09T09:36:20.723Z,264
2023-05-09T09:38:32.710Z,264
2023-05-09T09:40:39.185Z,264
2023-05-09T09:42:45.638Z,262
2023-05-09T09:44:56.266Z,264
2023-05-09T09:47:03.062Z,265
2023-05-09T09:49:09.877Z,262
2023-05-09T09:51:16.626Z,264
2023-05-09T09:53:24.472Z,264
2023-05-09T09:55:31.468Z,264
2023-05-09T09:57:38.283Z,264
2023-05-09T09:59:44.680Z,264
2023-05-09T10:01:54.995Z,264
2023-05-09T10:04:01.915Z,264
2023-05-09T10:06:14.482Z,264
2023-05-09T10:08:25.377Z,264
2023-05-09T10:10:32.478Z,265
2023-05-09T10:12:40.142Z,265
2023-05-09T10:14:46.988Z,265
2023-05-09T10:16:53.505Z,264
2023-05-09T10:19:00.933Z,264
2023-05-09T10:21:09.547Z,264
2023-05-09T10:23:16.402Z,264
2023-05-09T10:25:22.743Z,264
2023-05-09T10:27:29.741Z,264
2023-05-09T10:29:36.367Z,264
2023-05-09T10:31:43.599Z,264
2023-05-09T10:33:50.129Z,264
2023-05-09T10:35:57.756Z,264
2023-05-09T10:38:04.897Z,264
2023-05-09T10:40:11.639Z,264
2023-05-09T10:42:18.825Z,264
2023-05-09T10:44:25.842Z,264
2023-05-09T10:46:32.245Z,264
2023-05-09T10:48:38.823Z,264
2023-05-09T10:50:45.575Z,264
2023-05-09T10:52:52.095Z,264
2023-05-09T10:54:58.735Z,264
2023-05-09T10:57:05.044Z,264
2023-05-09T10:59:11.250Z,264
2023-05-09T11:01:17.519Z,264
2023-05-09T11:03:24.433Z,264
2023-05-09T11:05:31.353Z,264
2023-05-09T11:07:37.913Z,264
2023-05-09T11:09:44.116Z,264
2023-05-09T11:11:50.803Z,264
2023-05-09T11:13:57.874Z,262
2023-05-09T11:16:04.243Z,262
2023-05-09T11:18:11.500Z,264
2023-05-09T11:20:18.454Z,264
2023-05-09T11:22:24.942Z,262
2023-05-09T11:24:32.898Z,247
2023-05-09T11:26:43.630Z,266
2023-05-09T11:28:51.016Z,266
2023-05-09T11:30:58.922Z,266
2023-05-09T11:33:05.756Z,265
2023-05-09T11:35:14.380Z,266
2023-05-09T11:37:21.456Z,264
2023-05-09T11:39:27.877Z,264
2023-05-09T11:41:34.861Z,264
2023-05-09T11:43:41.938Z,266
2023-05-09T11:45:49.580Z,262
2023-05-09T11:47:57.073Z,262
2023-05-09T11:50:04.903Z,264
2023-05-09T11:52:12.444Z,266
2023-05-09T11:54:18.836Z,264
2023-05-09T11:56:26.358Z,266
2023-05-09T11:58:32.929Z,266
2023-05-09T12:00:39.432Z,265
2023-05-09T12:02:47.485Z,266
2023-05-09T12:04:54.554Z,266
2023-05-09T12:07:01.506Z,265
2023-05-09T12:09:08.061Z,265
2023-05-09T12:11:14.305Z,264
2023-05-09T12:13:20.637Z,264
2023-05-09T12:15:27.398Z,264
2023-05-09T12:17:34.560Z,265
2023-05-09T12:19:40.887Z,265
2023-05-09T12:21:47.860Z,265
2023-05-09T12:23:56.327Z,262
2023-05-09T12:26:03.008Z,265
2023-05-09T12:28:09.820Z,266
2023-05-09T12:30:17.551Z,262
2023-05-09T12:32:25.267Z,259
2023-05-09T12:34:31.803Z,243
2023-05-09T12:36:39.837Z,265
2023-05-09T12:38:47.426Z,266
2023-05-09T12:40:53.831Z,265
2023-05-09T12:43:00.717Z,265
2023-05-09T12:45:07.758Z,264
2023-05-09T12:47:15.609Z,265
2023-05-09T12:49:23.552Z,264
2023-05-09T12:51:30.756Z,265
2023-05-09T12:53:38.673Z,264
2023-05-09T12:55:45.853Z,265
2023-05-09T12:57:52.135Z,262
2023-05-09T12:59:59.005Z,264
2023-05-09T13:02:06.436Z,265
2023-05-09T13:04:15.043Z,264
2023-05-09T13:06:22.181Z,265
2023-05-09T13:08:29.379Z,256
2023-05-09T13:10:37.577Z,256
2023-05-09T13:12:45.125Z,242
2023-05-09T13:14:52.951Z,254
2023-05-09T13:17:00.508Z,254
2023-05-09T13:19:08.483Z,266
2023-05-09T13:21:15.865Z,264
2023-05-09T13:23:23.407Z,262
2023-05-09T13:25:30.014Z,265
2023-05-09T13:27:36.665Z,265
2023-05-09T13:29:43.370Z,262
2023-05-09T13:31:51.205Z,265
2023-05-09T13:33:58.066Z,264
2023-05-09T13:36:05.189Z,246
2023-05-09T13:38:13.003Z,267
2023-05-09T13:40:21.352Z,266
2023-05-09T13:42:29.357Z,266
2023-05-09T13:44:37.225Z,265
2023-05-09T13:46:45.276Z,262
2023-05-09T13:48:52.444Z,259
2023-05-09T13:50:59.167Z,262
2023-05-09T13:53:05.644Z,262
2023-05-09T13:55:13.235Z,249
2023-05-09T13:57:21.156Z,254
2023-05-09T13:59:28.450Z,256
2023-05-09T14:01:35.555Z,254
2023-05-09T14:03:43.132Z,268
2023-05-09T14:05:50.040Z,267
2023-05-09T14:07:56.895Z,267
2023-05-09T14:10:15.194Z,254
2023-05-09T14:12:21.722Z,261
2023-05-09T14:14:29.352Z,264
2023-05-09T14:16:37.295Z,257
2023-05-09T14:18:43.906Z,266
2023-05-09T14:20:51.237Z,262
2023-05-09T14:22:57.774Z,261
2023-05-09T14:25:04.561Z,262
2023-05-09T14:27:12.668Z,261
2023-05-09T14:29:20.645Z,262
2023-05-09T14:31:28.291Z,262
2023-05-09T14:33:36.236Z,261
2023-05-09T14:35:45.461Z,262
2023-05-09T14:37:52.198Z,258
2023-05-09T14:40:01.129Z,262
2023-05-09T14:42:08.283Z,258
2023-05-09T14:44:18.627Z,256
2023-05-09T14:46:25.635Z,253
2023-05-09T14:48:32.302Z,255
2023-05-09T14:50:38.822Z,252
2023-05-09T14:52:46.527Z,268
2023-05-09T14:54:53.503Z,270
2023-05-09T14:57:02.143Z,258
2023-05-09T14:59:10.180Z,257
2023-05-09T15:01:17.594Z,272
2023-05-09T15:03:26.002Z,273
2023-05-09T15:05:32.209Z,270
2023-05-09T15:07:39.540Z,273
2023-05-09T15:09:47.726Z,272
2023-05-09T15:11:56.277Z,270
2023-05-09T15:14:04.209Z,259
2023-05-09T15:16:12.179Z,262
2023-05-09T15:18:19.941Z,259
2023-05-09T15:20:27.500Z,267
2023-05-09T15:22:35.113Z,265
2023-05-09T15:24:42.548Z,262
2023-05-09T15:26:49.958Z,250
2023-05-09T15:28:56.784Z,262
2023-05-09T15:31:04.326Z,262
2023-05-09T15:33:12.815Z,262
2023-05-09T15:35:20.357Z,262
2023-05-09T15:37:28.290Z,264
2023-05-09T15:39:38.463Z,264
2023-05-09T15:41:46.168Z,264
2023-05-09T15:43:54.832Z,264
2023-05-09T15:46:02.535Z,260
2023-05-09T15:48:11.086Z,264
2023-05-09T15:50:19.385Z,266
2023-05-09T15:52:26.933Z,267
2023-05-09T15:54:34.431Z,267
2023-05-09T15:56:41.651Z,266
2023-05-09T15:58:49.293Z,267
2023-05-09T16:00:56.952Z,267
2023-05-09T16:03:05.952Z,267
2023-05-09T16:05:14.581Z,266
2023-05-09T16:07:24.062Z,264
2023-05-09T16:09:31.183Z,262
2023-05-09T16:11:42.040Z,264
2023-05-09T16:13:49.618Z,257
2023-05-09T16:15:57.644Z,265
2023-05-09T16:18:05.591Z,265
2023-05-09T16:20:14.009Z,261
2023-05-09T16:22:22.391Z,265
2023-05-09T16:24:30.212Z,266
2023-05-09T16:26:38.635Z,267
2023-05-09T16:28:46.596Z,268
2023-05-09T16:30:54.707Z,265
2023-05-09T16:33:02.517Z,264
2023-05-09T16:35:10.514Z,266
2023-05-09T16:37:17.984Z,266
2023-05-09T16:39:25.390Z,262
2023-05-09T16:41:32.981Z,261
2023-05-09T16:43:40.211Z,266
2023-05-09T16:45:48.100Z,266
2023-05-09T16:47:55.923Z,267
2023-05-09T16:50:05.316Z,266
2023-05-09T16:52:13.684Z,272
2023-05-09T16:54:21.752Z,271
2023-05-09T16:56:29.453Z,272
2023-05-09T16:58:40.615Z,267
2023-05-09T17:00:47.307Z,272
2023-05-09T17:02:54.597Z,270
2023-05-09T17:05:03.105Z,268
2023-05-09T17:07:12.891Z,269
2023-05-09T17:09:20.305Z,268
2023-05-09T17:11:28.491Z,268
2023-05-09T17:13:36.368Z,270
2023-05-09T17:15:43.828Z,272
2023-05-09T17:17:52.059Z,264
2023-05-09T17:20:06.872Z,267
2023-05-09T17:22:15.101Z,266
2023-05-09T17:24:22.859Z,259
2023-05-09T17:26:31.199Z,265
2023-05-09T17:28:38.874Z,264
2023-05-09T17:30:46.550Z,266
2023-05-09T17:32:54.087Z,264
2023-05-09T17:35:02.060Z,265
2023-05-09T17:37:09.764Z,266
2023-05-09T17:39:18.150Z,264
2023-05-09T17:41:25.887Z,264
2023-05-09T17:43:34.253Z,265
2023-05-09T17:45:42.581Z,265
2023-05-09T17:47:50.414Z,264
2023-05-09T17:49:57.911Z,264
2023-05-09T17:52:07.125Z,264
2023-05-09T17:54:15.732Z,262
2023-05-09T17:56:23.285Z,264
2023-05-09T17:58:31.861Z,265
2023-05-09T18:00:40.360Z,264
2023-05-09T18:02:48.564Z,264
2023-05-09T18:04:57.025Z,259
2023-05-09T18:07:05.407Z,256
2023-05-09T18:09:13.966Z,253
2023-05-09T18:11:25.269Z,255
2023-05-09T18:13:33.896Z,270
2023-05-09T18:15:44.124Z,268
2023-05-09T18:17:52.834Z,270
2023-05-09T18:20:00.977Z,268
2023-05-09T18:22:09.264Z,267
2023-05-09T18:24:20.667Z,261
2023-05-09T18:26:28.833Z,269
2023-05-09T18:28:37.017Z,270
2023-05-09T18:30:44.947Z,268
2023-05-09T18:33:02.211Z,270
2023-05-09T18:35:11.038Z,268
2023-05-09T18:37:19.445Z,268
2023-05-09T18:39:30.107Z,266
2023-05-09T18:41:41.075Z,262
2023-05-09T18:43:48.948Z,264
2023-05-09T18:45:56.623Z,261
2023-05-09T18:48:07.094Z,262
2023-05-09T18:50:15.995Z,259
2023-05-09T18:52:24.334Z,267
2023-05-09T18:54:34.953Z,257
2023-05-09T18:56:45.038Z,255
2023-05-09T18:59:00.729Z,258
2023-05-09T19:01:10.304Z,264
2023-05-09T19:03:19.399Z,264
2023-05-09T19:05:31.163Z,247
2023-05-09T19:07:39.266Z,258
2023-05-09T19:09:49.743Z,249
2023-05-09T19:12:00.629Z,252
2023-05-09T19:14:12.408Z,254
2023-05-09T19:16:26.903Z,256
2023-05-09T19:18:38.811Z,261
2023-05-09T19:20:50.836Z,256
2023-05-09T19:26:04.796Z,256
2023-05-09T19:28:15.864Z,255
2023-05-09T19:30:28.425Z,255
2023-05-09T19:32:40.961Z,255
2023-05-09T19:34:53.617Z,255
2023-05-09T19:37:08.593Z,254
2023-05-09T19:39:26.593Z,252
2023-05-09T19:41:43.368Z,248
2023-05-09T19:43:58.307Z,283
2023-05-09T19:46:12.749Z,282
2023-05-09T19:48:39.036Z,282
2023-05-09T19:50:50.342Z,282
2023-05-09T19:53:08.902Z,283
2023-05-09T19:55:25.652Z,283
2023-05-09T19:57:36.875Z,282
2023-05-09T19:59:44.940Z,282
2023-05-09T20:01:54.976Z,281
2023-05-09T20:04:04.356Z,283
2023-05-09T20:09:18.365Z,283
2023-05-09T20:11:30.929Z,278
2023-05-09T20:13:44.347Z,281
2023-05-09T20:15:56.159Z,281
2023-05-09T20:18:09.885Z,281
2023-05-09T20:20:24.060Z,281
2023-05-09T20:22:35.014Z,281
2023-05-09T20:24:46.288Z,281
2023-05-09T20:26:57.753Z,281
2023-05-09T20:29:10.160Z,281
2023-05-09T20:31:22.000Z,281
2023-05-09T20:33:33.527Z,281
2023-05-09T20:35:46.534Z,281
2023-05-09T20:37:58.540Z,280
2023-05-09T20:40:09.618Z,281
2023-05-09T20:42:20.985Z,280
2023-05-09T20:44:31.867Z,281
2023-05-09T20:46:43.415Z,280
2023-05-09T20:48:54.093Z,254
2023-05-09T20:51:04.070Z,262
2023-05-09T20:53:12.340Z,262
2023-05-09T20:55:19.516Z,271
2023-05-09T20:57:27.006Z,266
2023-05-09T20:59:34.533Z,262
2023-05-09T21:01:43.020Z,266
2023-05-09T21:03:52.629Z,264
2023-05-09T21:05:59.516Z,270
2023-05-09T21:08:06.886Z,268
2023-05-09T21:10:14.744Z,268
2023-05-09T21:12:22.912Z,272
2023-05-09T21:14:30.400Z,268
2023-05-09T21:16:37.552Z,268
2023-05-09T21:18:44.794Z,269
2023-05-09T21:20:51.874Z,268
2023-05-09T21:23:00.876Z,267
2023-05-09T21:25:07.585Z,267
2023-05-09T21:27:14.004Z,266
2023-05-09T21:29:21.002Z,267
2023-05-09T21:31:28.807Z,267
2023-05-09T21:33:35.711Z,267
2023-05-09T21:35:42.439Z,266
2023-05-09T21:37:49.821Z,267
2023-05-09T21:39:56.866Z,267
2023-05-09T21:42:04.385Z,261
2023-05-09T21:44:14.138Z,264
2023-05-09T21:46:21.579Z,264
2023-05-09T21:48:28.882Z,261
2023-05-09T21:50:35.804Z,257
2023-05-09T21:52:43.121Z,261
2023-05-09T21:54:50.133Z,267
2023-05-09T21:56:56.520Z,265
2023-05-09T21:59:03.529Z,267
2023-05-09T22:01:10.912Z,267
2023-05-09T22:03:19.470Z,267
2023-05-09T22:05:26.579Z,267
2023-05-09T22:07:33.388Z,267
2023-05-09T22:09:40.152Z,268
2023-05-09T22:11:47.223Z,268
2023-05-09T22:13:54.183Z,267
2023-05-09T22:16:01.518Z,267
2023-05-09T22:18:09.311Z,267
2023-05-09T22:20:19.048Z,268
2023-05-09T22:22:25.858Z,268
2023-05-09T22:24:32.115Z,268
2023-05-09T22:26:39.239Z,268
2023-05-09T22:28:45.266Z,255
2023-05-09T22:30:51.625Z,283
2023-05-09T22:32:58.051Z,284
2023-05-09T22:35:05.306Z,283
2023-05-09T22:37:11.988Z,283
2023-05-09T22:39:18.819Z,283
2023-05-09T22:41:25.040Z,283
2023-05-09T22:43:41.315Z,283
2023-05-09T22:45:49.079Z,283
2023-05-09T22:47:55.469Z,282
2023-05-09T22:50:02.084Z,283
2023-05-09T22:52:09.539Z,283
2023-05-09T22:54:18.398Z,283
2023-05-09T22:56:25.776Z,283
2023-05-09T22:58:34.153Z,282
2023-05-09T23:00:40.932Z,284
2023-05-09T23:02:48.592Z,284
2023-05-09T23:04:55.183Z,286
2023-05-09T23:07:01.772Z,283
2023-05-09T23:09:08.731Z,284
2023-05-09T23:11:15.619Z,284
2023-05-09T23:13:22.551Z,283
2023-05-09T23:15:29.933Z,282
2023-05-09T23:17:36.809Z,282
2023-05-09T23:19:44.932Z,267
2023-05-09T23:21:51.810Z,270
2023-05-09T23:23:58.948Z,270
2023-05-09T23:26:05.721Z,259
2023-05-09T23:28:12.438Z,252
2023-05-09T23:30:19.926Z,267
2023-05-09T23:32:27.070Z,259
2023-05-09T23:34:33.887Z,246
2023-05-09T23:36:40.271Z,248
2023-05-09T23:38:50.200Z,254
2023-05-09T23:40:57.391Z,258
2023-05-09T23:43:04.534Z,261
2023-05-09T23:45:11.172Z,264
2023-05-09T23:47:18.425Z,261
2023-05-09T23:49:25.176Z,264
2023-05-09T23:51:31.789Z,264
2023-05-09T23:53:39.422Z,261
2023-05-09T23:55:46.317Z,262
2023-05-09T23:57:53.547Z,264
